sensor_id;sensor_type;location;lat;lon;timestamp;P1;durP1;ratioP1;P2;durP2;ratioP2
49123;SDS011;48506;48.202;16.274;2023-09-07T00:00:49;5.35;;;4.40;;
49123;SDS011;48506;48.202;16.274;2023-09-07T00:03:15;9.35;;;5.15;;
49123;SDS011;48506;48.202;16.274;2023-09-07T00:05:41;9.27;;;5.15;;
49123;SDS011;48506;48.202;16.274;2023-09-07T00:08:07;6.72;;;5.05;;
49123;SDS011;48506;48.202;16.274;2023-09-07T00:10:33;6.05;;;5.00;;
49123;SDS011;48506;48.202;16.274;2023-09-07T00:13:03;5.55;;;4.72;;
49123;SDS011;48506;48.202;16.274;2023-09-07T00:15:29;6.93;;;5.15;;
49123;SDS011;48506;48.202;16.274;2023-09-07T00:18:00;6.90;;;5.85;;
49123;SDS011;48506;48.202;16.274;2023-09-07T00:20:26;7.47;;;5.63;;
49123;SDS011;48506;48.202;16.274;2023-09-07T00:22:52;7.47;;;4.90;;
49123;SDS011;48506;48.202;16.274;2023-09-07T00:25:17;6.25;;;5.53;;
49123;SDS011;48506;48.202;16.274;2023-09-07T00:27:46;7.00;;;5.47;;
49123;SDS011;48506;48.202;16.274;2023-09-07T00:30:12;6.10;;;5.03;;
49123;SDS011;48506;48.202;16.274;2023-09-07T00:32:38;7.22;;;4.97;;
49123;SDS011;48506;48.202;16.274;2023-09-07T00:35:04;7.57;;;5.50;;
49123;SDS011;48506;48.202;16.274;2023-09-07T00:37:31;6.28;;;4.78;;
49123;SDS011;48506;48.202;16.274;2023-09-07T00:39:58;7.65;;;5.43;;
49123;SDS011;48506;48.202;16.274;2023-09-07T00:42:24;8.55;;;5.53;;
49123;SDS011;48506;48.202;16.274;2023-09-07T00:44:49;9.68;;;5.30;;
49123;SDS011;48506;48.202;16.274;2023-09-07T00:47:16;6.15;;;5.55;;
49123;SDS011;48506;48.202;16.274;2023-09-07T00:49:43;7.10;;;5.45;;
49123;SDS011;48506;48.202;16.274;2023-09-07T00:52:09;6.03;;;5.43;;
49123;SDS011;48506;48.202;16.274;2023-09-07T00:54:35;6.60;;;5.03;;
49123;SDS011;48506;48.202;16.274;2023-09-07T00:57:04;7.15;;;5.30;;
49123;SDS011;48506;48.202;16.274;2023-09-07T00:59:31;7.20;;;5.82;;
49123;SDS011;48506;48.202;16.274;2023-09-07T01:01:59;5.68;;;5.05;;
49123;SDS011;48506;48.202;16.274;2023-09-07T01:04:25;8.00;;;6.05;;
49123;SDS011;48506;48.202;16.274;2023-09-07T01:06:52;8.32;;;5.22;;
49123;SDS011;48506;48.202;16.274;2023-09-07T01:09:43;7.45;;;5.85;;
49123;SDS011;48506;48.202;16.274;2023-09-07T01:12:15;10.43;;;5.90;;
49123;SDS011;48506;48.202;16.274;2023-09-07T01:14:41;7.30;;;5.97;;
49123;SDS011;48506;48.202;16.274;2023-09-07T01:17:08;7.97;;;5.57;;
49123;SDS011;48506;48.202;16.274;2023-09-07T01:19:36;8.43;;;5.47;;
49123;SDS011;48506;48.202;16.274;2023-09-07T01:22:02;7.15;;;5.68;;
49123;SDS011;48506;48.202;16.274;2023-09-07T01:24:29;7.50;;;5.88;;
49123;SDS011;48506;48.202;16.274;2023-09-07T01:26:59;8.32;;;6.00;;
49123;SDS011;48506;48.202;16.274;2023-09-07T01:29:30;7.43;;;5.78;;
49123;SDS011;48506;48.202;16.274;2023-09-07T01:31:56;6.32;;;5.68;;
49123;SDS011;48506;48.202;16.274;2023-09-07T01:34:23;6.45;;;5.75;;
49123;SDS011;48506;48.202;16.274;2023-09-07T01:36:49;7.78;;;4.85;;
49123;SDS011;48506;48.202;16.274;2023-09-07T01:39:15;7.30;;;5.20;;
49123;SDS011;48506;48.202;16.274;2023-09-07T01:41:42;9.40;;;5.65;;
49123;SDS011;48506;48.202;16.274;2023-09-07T01:44:08;6.88;;;5.80;;
49123;SDS011;48506;48.202;16.274;2023-09-07T01:46:34;7.05;;;5.45;;
49123;SDS011;48506;48.202;16.274;2023-09-07T01:49:01;8.55;;;5.95;;
49123;SDS011;48506;48.202;16.274;2023-09-07T01:51:27;7.38;;;5.97;;
49123;SDS011;48506;48.202;16.274;2023-09-07T01:53:53;7.13;;;5.75;;
49123;SDS011;48506;48.202;16.274;2023-09-07T01:56:20;8.13;;;6.65;;
49123;SDS011;48506;48.202;16.274;2023-09-07T01:58:46;6.82;;;5.68;;
49123;SDS011;48506;48.202;16.274;2023-09-07T02:01:24;9.52;;;6.70;;
49123;SDS011;48506;48.202;16.274;2023-09-07T02:03:55;7.25;;;5.72;;
49123;SDS011;48506;48.202;16.274;2023-09-07T02:06:21;6.22;;;5.15;;
49123;SDS011;48506;48.202;16.274;2023-09-07T02:08:47;6.15;;;5.55;;
49123;SDS011;48506;48.202;16.274;2023-09-07T02:11:13;7.95;;;6.30;;
49123;SDS011;48506;48.202;16.274;2023-09-07T02:13:42;8.38;;;5.63;;
49123;SDS011;48506;48.202;16.274;2023-09-07T02:16:09;9.07;;;6.85;;
49123;SDS011;48506;48.202;16.274;2023-09-07T02:18:35;9.45;;;5.63;;
49123;SDS011;48506;48.202;16.274;2023-09-07T02:21:19;6.82;;;5.63;;
49123;SDS011;48506;48.202;16.274;2023-09-07T02:23:45;7.85;;;5.25;;
49123;SDS011;48506;48.202;16.274;2023-09-07T02:26:11;7.47;;;5.65;;
49123;SDS011;48506;48.202;16.274;2023-09-07T02:28:37;8.80;;;6.38;;
49123;SDS011;48506;48.202;16.274;2023-09-07T02:31:04;6.68;;;5.55;;
49123;SDS011;48506;48.202;16.274;2023-09-07T02:33:31;6.03;;;5.20;;
49123;SDS011;48506;48.202;16.274;2023-09-07T02:35:57;5.90;;;5.07;;
49123;SDS011;48506;48.202;16.274;2023-09-07T02:38:24;8.52;;;5.63;;
49123;SDS011;48506;48.202;16.274;2023-09-07T02:40:50;6.35;;;5.43;;
49123;SDS011;48506;48.202;16.274;2023-09-07T02:43:16;6.78;;;5.53;;
49123;SDS011;48506;48.202;16.274;2023-09-07T02:45:42;9.80;;;6.22;;
49123;SDS011;48506;48.202;16.274;2023-09-07T02:48:08;8.27;;;5.72;;
49123;SDS011;48506;48.202;16.274;2023-09-07T02:50:34;6.57;;;5.47;;
49123;SDS011;48506;48.202;16.274;2023-09-07T02:53:00;9.20;;;5.90;;
49123;SDS011;48506;48.202;16.274;2023-09-07T02:55:28;6.78;;;5.95;;
49123;SDS011;48506;48.202;16.274;2023-09-07T02:57:55;9.05;;;5.82;;
49123;SDS011;48506;48.202;16.274;2023-09-07T03:00:22;5.97;;;5.28;;
49123;SDS011;48506;48.202;16.274;2023-09-07T03:02:48;8.25;;;5.43;;
49123;SDS011;48506;48.202;16.274;2023-09-07T03:05:15;10.82;;;6.47;;
49123;SDS011;48506;48.202;16.274;2023-09-07T03:07:44;7.97;;;5.82;;
49123;SDS011;48506;48.202;16.274;2023-09-07T03:10:13;6.65;;;5.47;;
49123;SDS011;48506;48.202;16.274;2023-09-07T03:12:39;7.60;;;5.90;;
49123;SDS011;48506;48.202;16.274;2023-09-07T03:15:05;7.85;;;6.25;;
49123;SDS011;48506;48.202;16.274;2023-09-07T03:17:33;8.43;;;6.28;;
49123;SDS011;48506;48.202;16.274;2023-09-07T03:19:59;8.65;;;6.45;;
49123;SDS011;48506;48.202;16.274;2023-09-07T03:22:25;8.45;;;6.75;;
49123;SDS011;48506;48.202;16.274;2023-09-07T03:24:51;9.85;;;6.93;;
49123;SDS011;48506;48.202;16.274;2023-09-07T03:27:17;8.93;;;7.10;;
49123;SDS011;48506;48.202;16.274;2023-09-07T03:29:46;7.63;;;6.25;;
49123;SDS011;48506;48.202;16.274;2023-09-07T03:32:16;7.30;;;6.30;;
49123;SDS011;48506;48.202;16.274;2023-09-07T03:34:42;7.70;;;6.53;;
49123;SDS011;48506;48.202;16.274;2023-09-07T03:37:08;10.43;;;6.93;;
49123;SDS011;48506;48.202;16.274;2023-09-07T03:39:36;9.77;;;6.60;;
49123;SDS011;48506;48.202;16.274;2023-09-07T03:42:02;10.82;;;6.35;;
49123;SDS011;48506;48.202;16.274;2023-09-07T03:44:28;10.77;;;6.43;;
49123;SDS011;48506;48.202;16.274;2023-09-07T03:46:54;6.75;;;5.82;;
49123;SDS011;48506;48.202;16.274;2023-09-07T03:49:20;8.30;;;6.28;;
49123;SDS011;48506;48.202;16.274;2023-09-07T03:51:46;10.32;;;7.93;;
49123;SDS011;48506;48.202;16.274;2023-09-07T03:54:12;11.25;;;6.70;;
49123;SDS011;48506;48.202;16.274;2023-09-07T03:56:38;7.68;;;6.88;;
49123;SDS011;48506;48.202;16.274;2023-09-07T03:59:04;8.32;;;6.45;;
49123;SDS011;48506;48.202;16.274;2023-09-07T04:01:30;7.88;;;6.93;;
49123;SDS011;48506;48.202;16.274;2023-09-07T04:03:56;9.63;;;6.53;;
49123;SDS011;48506;48.202;16.274;2023-09-07T04:06:22;11.38;;;7.05;;
49123;SDS011;48506;48.202;16.274;2023-09-07T04:08:49;12.73;;;7.72;;
49123;SDS011;48506;48.202;16.274;2023-09-07T04:11:15;8.70;;;7.72;;
49123;SDS011;48506;48.202;16.274;2023-09-07T04:13:41;9.95;;;7.90;;
49123;SDS011;48506;48.202;16.274;2023-09-07T04:16:08;7.05;;;6.35;;
49123;SDS011;48506;48.202;16.274;2023-09-07T04:18:35;10.23;;;7.32;;
49123;SDS011;48506;48.202;16.274;2023-09-07T04:21:04;11.00;;;7.68;;
49123;SDS011;48506;48.202;16.274;2023-09-07T04:23:33;8.30;;;7.25;;
49123;SDS011;48506;48.202;16.274;2023-09-07T04:26:05;9.20;;;7.00;;
49123;SDS011;48506;48.202;16.274;2023-09-07T04:28:33;10.52;;;6.82;;
49123;SDS011;48506;48.202;16.274;2023-09-07T04:30:59;8.25;;;6.88;;
49123;SDS011;48506;48.202;16.274;2023-09-07T04:33:25;9.18;;;7.72;;
49123;SDS011;48506;48.202;16.274;2023-09-07T04:35:51;8.98;;;6.82;;
49123;SDS011;48506;48.202;16.274;2023-09-07T04:38:17;8.68;;;7.60;;
49123;SDS011;48506;48.202;16.274;2023-09-07T04:40:43;7.85;;;6.80;;
49123;SDS011;48506;48.202;16.274;2023-09-07T04:43:09;10.43;;;7.20;;
49123;SDS011;48506;48.202;16.274;2023-09-07T04:45:35;11.38;;;8.27;;
49123;SDS011;48506;48.202;16.274;2023-09-07T04:48:00;15.57;;;7.50;;
49123;SDS011;48506;48.202;16.274;2023-09-07T04:50:26;11.13;;;7.25;;
49123;SDS011;48506;48.202;16.274;2023-09-07T04:52:52;9.90;;;7.15;;
49123;SDS011;48506;48.202;16.274;2023-09-07T04:55:18;9.52;;;7.18;;
49123;SDS011;48506;48.202;16.274;2023-09-07T04:57:44;8.52;;;7.05;;
49123;SDS011;48506;48.202;16.274;2023-09-07T05:00:10;10.15;;;6.93;;
49123;SDS011;48506;48.202;16.274;2023-09-07T05:02:36;10.02;;;7.35;;
49123;SDS011;48506;48.202;16.274;2023-09-07T05:05:07;9.30;;;6.65;;
49123;SDS011;48506;48.202;16.274;2023-09-07T05:07:36;9.80;;;8.10;;
49123;SDS011;48506;48.202;16.274;2023-09-07T05:10:02;7.90;;;7.10;;
49123;SDS011;48506;48.202;16.274;2023-09-07T05:12:28;7.90;;;6.75;;
49123;SDS011;48506;48.202;16.274;2023-09-07T05:14:54;9.10;;;7.68;;
49123;SDS011;48506;48.202;16.274;2023-09-07T05:17:20;10.52;;;7.47;;
49123;SDS011;48506;48.202;16.274;2023-09-07T05:19:46;9.38;;;7.05;;
49123;SDS011;48506;48.202;16.274;2023-09-07T05:22:12;10.80;;;6.80;;
49123;SDS011;48506;48.202;16.274;2023-09-07T05:24:38;8.38;;;6.38;;
49123;SDS011;48506;48.202;16.274;2023-09-07T05:27:04;7.28;;;6.00;;
49123;SDS011;48506;48.202;16.274;2023-09-07T05:29:30;8.35;;;7.50;;
49123;SDS011;48506;48.202;16.274;2023-09-07T05:31:56;14.32;;;8.80;;
49123;SDS011;48506;48.202;16.274;2023-09-07T05:34:22;13.57;;;8.27;;
49123;SDS011;48506;48.202;16.274;2023-09-07T05:36:48;10.63;;;7.57;;
49123;SDS011;48506;48.202;16.274;2023-09-07T05:39:14;12.45;;;7.93;;
49123;SDS011;48506;48.202;16.274;2023-09-07T05:41:40;10.32;;;8.40;;
49123;SDS011;48506;48.202;16.274;2023-09-07T05:44:05;13.85;;;7.32;;
49123;SDS011;48506;48.202;16.274;2023-09-07T05:46:31;13.10;;;7.90;;
49123;SDS011;48506;48.202;16.274;2023-09-07T05:48:57;10.07;;;7.25;;
49123;SDS011;48506;48.202;16.274;2023-09-07T05:51:23;17.80;;;8.75;;
49123;SDS011;48506;48.202;16.274;2023-09-07T05:53:49;12.57;;;7.70;;
49123;SDS011;48506;48.202;16.274;2023-09-07T05:56:15;15.63;;;7.43;;
49123;SDS011;48506;48.202;16.274;2023-09-07T05:58:41;14.75;;;8.05;;
49123;SDS011;48506;48.202;16.274;2023-09-07T06:01:06;11.30;;;8.05;;
49123;SDS011;48506;48.202;16.274;2023-09-07T06:03:33;16.08;;;7.10;;
49123;SDS011;48506;48.202;16.274;2023-09-07T06:06:00;12.45;;;7.03;;
49123;SDS011;48506;48.202;16.274;2023-09-07T06:08:26;16.35;;;7.88;;
49123;SDS011;48506;48.202;16.274;2023-09-07T06:10:52;14.60;;;7.15;;
49123;SDS011;48506;48.202;16.274;2023-09-07T06:13:18;14.45;;;7.63;;
49123;SDS011;48506;48.202;16.274;2023-09-07T06:15:44;15.02;;;7.78;;
49123;SDS011;48506;48.202;16.274;2023-09-07T06:18:10;13.13;;;7.95;;
49123;SDS011;48506;48.202;16.274;2023-09-07T06:20:36;12.35;;;7.72;;
49123;SDS011;48506;48.202;16.274;2023-09-07T06:23:02;13.68;;;8.55;;
49123;SDS011;48506;48.202;16.274;2023-09-07T06:25:28;29.05;;;9.82;;
49123;SDS011;48506;48.202;16.274;2023-09-07T06:27:54;12.23;;;8.80;;
49123;SDS011;48506;48.202;16.274;2023-09-07T06:30:20;16.60;;;7.70;;
49123;SDS011;48506;48.202;16.274;2023-09-07T06:32:46;12.10;;;8.68;;
49123;SDS011;48506;48.202;16.274;2023-09-07T06:35:13;11.68;;;7.25;;
49123;SDS011;48506;48.202;16.274;2023-09-07T06:37:39;13.32;;;7.93;;
49123;SDS011;48506;48.202;16.274;2023-09-07T06:40:07;11.65;;;7.03;;
49123;SDS011;48506;48.202;16.274;2023-09-07T06:42:34;12.05;;;7.50;;
49123;SDS011;48506;48.202;16.274;2023-09-07T06:45:00;13.82;;;7.30;;
49123;SDS011;48506;48.202;16.274;2023-09-07T06:47:26;15.55;;;7.30;;
49123;SDS011;48506;48.202;16.274;2023-09-07T06:49:52;12.70;;;7.70;;
49123;SDS011;48506;48.202;16.274;2023-09-07T06:52:19;13.15;;;6.95;;
49123;SDS011;48506;48.202;16.274;2023-09-07T06:54:45;12.55;;;6.97;;
49123;SDS011;48506;48.202;16.274;2023-09-07T06:57:10;9.10;;;6.30;;
49123;SDS011;48506;48.202;16.274;2023-09-07T06:59:36;15.57;;;6.85;;
49123;SDS011;48506;48.202;16.274;2023-09-07T07:02:03;10.80;;;6.50;;
49123;SDS011;48506;48.202;16.274;2023-09-07T07:04:30;8.77;;;6.47;;
49123;SDS011;48506;48.202;16.274;2023-09-07T07:06:56;11.23;;;6.32;;
49123;SDS011;48506;48.202;16.274;2023-09-07T07:09:21;6.70;;;6.00;;
49123;SDS011;48506;48.202;16.274;2023-09-07T07:11:47;7.28;;;5.95;;
49123;SDS011;48506;48.202;16.274;2023-09-07T07:14:14;7.57;;;6.15;;
49123;SDS011;48506;48.202;16.274;2023-09-07T07:16:40;9.38;;;6.28;;
49123;SDS011;48506;48.202;16.274;2023-09-07T07:19:06;9.52;;;6.95;;
49123;SDS011;48506;48.202;16.274;2023-09-07T07:21:31;8.60;;;5.75;;
49123;SDS011;48506;48.202;16.274;2023-09-07T07:23:57;7.38;;;6.40;;
49123;SDS011;48506;48.202;16.274;2023-09-07T07:26:23;8.70;;;6.80;;
49123;SDS011;48506;48.202;16.274;2023-09-07T07:28:49;9.77;;;6.10;;
49123;SDS011;48506;48.202;16.274;2023-09-07T07:31:15;10.07;;;5.88;;
49123;SDS011;48506;48.202;16.274;2023-09-07T07:33:41;10.90;;;6.80;;
49123;SDS011;48506;48.202;16.274;2023-09-07T07:36:07;10.13;;;6.50;;
49123;SDS011;48506;48.202;16.274;2023-09-07T07:38:33;9.23;;;6.45;;
49123;SDS011;48506;48.202;16.274;2023-09-07T07:40:59;6.88;;;5.80;;
49123;SDS011;48506;48.202;16.274;2023-09-07T07:43:25;13.23;;;6.15;;
49123;SDS011;48506;48.202;16.274;2023-09-07T07:45:53;7.97;;;6.20;;
49123;SDS011;48506;48.202;16.274;2023-09-07T07:48:19;9.13;;;6.28;;
49123;SDS011;48506;48.202;16.274;2023-09-07T07:50:45;8.80;;;6.95;;
49123;SDS011;48506;48.202;16.274;2023-09-07T07:53:11;8.88;;;6.05;;
49123;SDS011;48506;48.202;16.274;2023-09-07T07:55:37;8.35;;;6.53;;
49123;SDS011;48506;48.202;16.274;2023-09-07T07:58:09;13.82;;;7.28;;
49123;SDS011;48506;48.202;16.274;2023-09-07T08:00:35;9.13;;;6.45;;
49123;SDS011;48506;48.202;16.274;2023-09-07T08:03:01;10.25;;;6.88;;
49123;SDS011;48506;48.202;16.274;2023-09-07T08:05:28;9.73;;;7.55;;
49123;SDS011;48506;48.202;16.274;2023-09-07T08:07:57;13.00;;;7.38;;
49123;SDS011;48506;48.202;16.274;2023-09-07T08:10:23;10.50;;;7.75;;
49123;SDS011;48506;48.202;16.274;2023-09-07T08:12:55;14.25;;;7.70;;
49123;SDS011;48506;48.202;16.274;2023-09-07T08:15:22;13.05;;;7.20;;
49123;SDS011;48506;48.202;16.274;2023-09-07T08:17:50;14.00;;;7.70;;
49123;SDS011;48506;48.202;16.274;2023-09-07T08:20:17;10.90;;;7.25;;
49123;SDS011;48506;48.202;16.274;2023-09-07T08:22:43;11.00;;;7.10;;
49123;SDS011;48506;48.202;16.274;2023-09-07T08:25:11;11.10;;;7.10;;
49123;SDS011;48506;48.202;16.274;2023-09-07T08:27:41;13.93;;;7.25;;
49123;SDS011;48506;48.202;16.274;2023-09-07T08:30:13;9.93;;;7.07;;
49123;SDS011;48506;48.202;16.274;2023-09-07T08:32:46;12.88;;;6.45;;
49123;SDS011;48506;48.202;16.274;2023-09-07T08:35:12;13.48;;;7.30;;
49123;SDS011;48506;48.202;16.274;2023-09-07T08:37:39;9.93;;;6.85;;
49123;SDS011;48506;48.202;16.274;2023-09-07T08:40:06;9.85;;;5.93;;
49123;SDS011;48506;48.202;16.274;2023-09-07T08:42:35;15.70;;;6.05;;
49123;SDS011;48506;48.202;16.274;2023-09-07T08:45:02;8.85;;;5.40;;
49123;SDS011;48506;48.202;16.274;2023-09-07T08:47:32;12.88;;;5.65;;
49123;SDS011;48506;48.202;16.274;2023-09-07T08:50:02;14.55;;;5.47;;
49123;SDS011;48506;48.202;16.274;2023-09-07T08:52:32;8.73;;;5.65;;
49123;SDS011;48506;48.202;16.274;2023-09-07T08:54:58;8.00;;;5.53;;
49123;SDS011;48506;48.202;16.274;2023-09-07T08:57:26;8.25;;;5.07;;
49123;SDS011;48506;48.202;16.274;2023-09-07T08:59:54;8.90;;;5.07;;
49123;SDS011;48506;48.202;16.274;2023-09-07T09:02:20;5.05;;;4.55;;
49123;SDS011;48506;48.202;16.274;2023-09-07T09:04:46;6.45;;;4.10;;
49123;SDS011;48506;48.202;16.274;2023-09-07T09:07:12;7.75;;;4.68;;
49123;SDS011;48506;48.202;16.274;2023-09-07T09:09:38;8.07;;;4.43;;
49123;SDS011;48506;48.202;16.274;2023-09-07T09:12:10;8.45;;;4.65;;
49123;SDS011;48506;48.202;16.274;2023-09-07T09:14:43;6.88;;;4.53;;
49123;SDS011;48506;48.202;16.274;2023-09-07T09:17:13;5.78;;;4.50;;
49123;SDS011;48506;48.202;16.274;2023-09-07T09:19:40;9.95;;;5.40;;
49123;SDS011;48506;48.202;16.274;2023-09-07T09:22:07;6.60;;;4.82;;
49123;SDS011;48506;48.202;16.274;2023-09-07T09:24:33;7.72;;;4.28;;
49123;SDS011;48506;48.202;16.274;2023-09-07T09:27:00;7.20;;;4.60;;
49123;SDS011;48506;48.202;16.274;2023-09-07T09:29:26;4.78;;;4.20;;
49123;SDS011;48506;48.202;16.274;2023-09-07T09:31:53;7.22;;;4.53;;
49123;SDS011;48506;48.202;16.274;2023-09-07T09:34:20;5.85;;;4.05;;
49123;SDS011;48506;48.202;16.274;2023-09-07T09:36:46;10.93;;;4.30;;
49123;SDS011;48506;48.202;16.274;2023-09-07T09:39:21;12.45;;;4.95;;
49123;SDS011;48506;48.202;16.274;2023-09-07T09:41:52;8.97;;;4.77;;
49123;SDS011;48506;48.202;16.274;2023-09-07T09:44:20;10.45;;;4.25;;
49123;SDS011;48506;48.202;16.274;2023-09-07T09:46:51;5.18;;;3.75;;
49123;SDS011;48506;48.202;16.274;2023-09-07T09:49:22;5.97;;;4.53;;
49123;SDS011;48506;48.202;16.274;2023-09-07T09:51:49;6.75;;;3.55;;
49123;SDS011;48506;48.202;16.274;2023-09-07T09:54:18;9.13;;;4.68;;
49123;SDS011;48506;48.202;16.274;2023-09-07T09:56:47;7.07;;;3.80;;
49123;SDS011;48506;48.202;16.274;2023-09-07T09:59:13;4.75;;;3.88;;
49123;SDS011;48506;48.202;16.274;2023-09-07T10:01:41;5.25;;;4.25;;
49123;SDS011;48506;48.202;16.274;2023-09-07T10:04:11;7.05;;;3.45;;
49123;SDS011;48506;48.202;16.274;2023-09-07T10:06:49;7.15;;;4.72;;
49123;SDS011;48506;48.202;16.274;2023-09-07T10:09:19;7.03;;;3.42;;
49123;SDS011;48506;48.202;16.274;2023-09-07T10:11:50;7.15;;;3.50;;
49123;SDS011;48506;48.202;16.274;2023-09-07T10:14:18;7.28;;;4.10;;
49123;SDS011;48506;48.202;16.274;2023-09-07T10:16:45;5.38;;;3.95;;
49123;SDS011;48506;48.202;16.274;2023-09-07T10:19:14;10.68;;;3.92;;
49123;SDS011;48506;48.202;16.274;2023-09-07T10:21:42;7.10;;;4.03;;
49123;SDS011;48506;48.202;16.274;2023-09-07T10:24:09;6.18;;;3.65;;
49123;SDS011;48506;48.202;16.274;2023-09-07T10:26:36;4.15;;;3.20;;
49123;SDS011;48506;48.202;16.274;2023-09-07T10:29:02;5.75;;;3.65;;
49123;SDS011;48506;48.202;16.274;2023-09-07T10:31:30;4.45;;;3.70;;
49123;SDS011;48506;48.202;16.274;2023-09-07T10:33:57;6.78;;;3.55;;
49123;SDS011;48506;48.202;16.274;2023-09-07T10:36:37;6.28;;;3.33;;
49123;SDS011;48506;48.202;16.274;2023-09-07T10:39:03;5.38;;;3.55;;
49123;SDS011;48506;48.202;16.274;2023-09-07T10:41:44;5.78;;;3.67;;
49123;SDS011;48506;48.202;16.274;2023-09-07T10:44:10;7.75;;;3.33;;
49123;SDS011;48506;48.202;16.274;2023-09-07T10:46:38;8.50;;;3.80;;
49123;SDS011;48506;48.202;16.274;2023-09-07T10:49:06;4.15;;;3.75;;
49123;SDS011;48506;48.202;16.274;2023-09-07T10:51:43;4.03;;;3.55;;
49123;SDS011;48506;48.202;16.274;2023-09-07T10:54:17;9.20;;;3.78;;
49123;SDS011;48506;48.202;16.274;2023-09-07T10:56:49;5.53;;;3.22;;
49123;SDS011;48506;48.202;16.274;2023-09-07T10:59:16;6.38;;;3.28;;
49123;SDS011;48506;48.202;16.274;2023-09-07T11:01:45;7.45;;;4.22;;
49123;SDS011;48506;48.202;16.274;2023-09-07T11:04:13;5.47;;;3.38;;
49123;SDS011;48506;48.202;16.274;2023-09-07T11:06:42;5.80;;;3.55;;
49123;SDS011;48506;48.202;16.274;2023-09-07T11:09:09;7.25;;;3.15;;
49123;SDS011;48506;48.202;16.274;2023-09-07T11:11:36;3.75;;;3.30;;
49123;SDS011;48506;48.202;16.274;2023-09-07T11:14:03;7.13;;;3.00;;
49123;SDS011;48506;48.202;16.274;2023-09-07T11:16:29;6.35;;;4.35;;
49123;SDS011;48506;48.202;16.274;2023-09-07T11:18:56;4.60;;;3.45;;
49123;SDS011;48506;48.202;16.274;2023-09-07T11:21:22;3.50;;;3.13;;
49123;SDS011;48506;48.202;16.274;2023-09-07T11:23:48;4.57;;;3.45;;
49123;SDS011;48506;48.202;16.274;2023-09-07T11:26:16;10.63;;;2.97;;
49123;SDS011;48506;48.202;16.274;2023-09-07T11:28:45;4.30;;;3.10;;
49123;SDS011;48506;48.202;16.274;2023-09-07T11:31:12;5.72;;;4.05;;
49123;SDS011;48506;48.202;16.274;2023-09-07T11:33:38;5.55;;;3.72;;
49123;SDS011;48506;48.202;16.274;2023-09-07T11:36:06;7.85;;;3.38;;
49123;SDS011;48506;48.202;16.274;2023-09-07T11:38:35;3.65;;;3.35;;
49123;SDS011;48506;48.202;16.274;2023-09-07T11:41:03;5.55;;;3.33;;
49123;SDS011;48506;48.202;16.274;2023-09-07T11:43:29;3.88;;;3.25;;
49123;SDS011;48506;48.202;16.274;2023-09-07T11:45:55;6.40;;;3.28;;
49123;SDS011;48506;48.202;16.274;2023-09-07T11:48:21;7.03;;;3.25;;
49123;SDS011;48506;48.202;16.274;2023-09-07T11:50:46;4.00;;;3.60;;
49123;SDS011;48506;48.202;16.274;2023-09-07T11:53:12;5.88;;;3.08;;
49123;SDS011;48506;48.202;16.274;2023-09-07T11:55:38;4.25;;;3.70;;
49123;SDS011;48506;48.202;16.274;2023-09-07T11:58:06;7.80;;;3.50;;
49123;SDS011;48506;48.202;16.274;2023-09-07T12:00:32;6.15;;;3.22;;
49123;SDS011;48506;48.202;16.274;2023-09-07T12:02:58;6.05;;;3.38;;
49123;SDS011;48506;48.202;16.274;2023-09-07T12:05:24;5.63;;;2.92;;
49123;SDS011;48506;48.202;16.274;2023-09-07T12:07:50;3.85;;;3.25;;
49123;SDS011;48506;48.202;16.274;2023-09-07T12:10:16;4.75;;;2.75;;
49123;SDS011;48506;48.202;16.274;2023-09-07T12:12:43;6.50;;;3.50;;
49123;SDS011;48506;48.202;16.274;2023-09-07T12:15:09;5.55;;;3.78;;
49123;SDS011;48506;48.202;16.274;2023-09-07T12:17:39;5.53;;;3.45;;
49123;SDS011;48506;48.202;16.274;2023-09-07T12:20:05;5.40;;;3.33;;
49123;SDS011;48506;48.202;16.274;2023-09-07T12:22:35;7.25;;;3.45;;
49123;SDS011;48506;48.202;16.274;2023-09-07T12:25:05;5.70;;;3.20;;
49123;SDS011;48506;48.202;16.274;2023-09-07T12:27:32;4.88;;;3.42;;
49123;SDS011;48506;48.202;16.274;2023-09-07T12:30:00;4.07;;;3.25;;
49123;SDS011;48506;48.202;16.274;2023-09-07T12:32:27;4.30;;;3.50;;
49123;SDS011;48506;48.202;16.274;2023-09-07T12:34:53;8.40;;;3.50;;
49123;SDS011;48506;48.202;16.274;2023-09-07T12:37:19;3.65;;;3.35;;
49123;SDS011;48506;48.202;16.274;2023-09-07T12:39:48;5.60;;;3.22;;
49123;SDS011;48506;48.202;16.274;2023-09-07T12:42:15;9.90;;;4.18;;
49123;SDS011;48506;48.202;16.274;2023-09-07T12:44:43;3.47;;;3.10;;
49123;SDS011;48506;48.202;16.274;2023-09-07T12:47:09;3.90;;;2.95;;
49123;SDS011;48506;48.202;16.274;2023-09-07T12:49:35;4.43;;;3.70;;
49123;SDS011;48506;48.202;16.274;2023-09-07T12:52:01;3.67;;;3.17;;
49123;SDS011;48506;48.202;16.274;2023-09-07T12:54:33;6.97;;;3.20;;
49123;SDS011;48506;48.202;16.274;2023-09-07T12:57:01;13.70;;;3.53;;
49123;SDS011;48506;48.202;16.274;2023-09-07T12:59:26;5.00;;;3.20;;
49123;SDS011;48506;48.202;16.274;2023-09-07T13:01:54;5.57;;;3.30;;
49123;SDS011;48506;48.202;16.274;2023-09-07T13:04:21;5.32;;;3.67;;
49123;SDS011;48506;48.202;16.274;2023-09-07T13:06:48;4.90;;;3.30;;
49123;SDS011;48506;48.202;16.274;2023-09-07T13:09:14;3.88;;;2.97;;
49123;SDS011;48506;48.202;16.274;2023-09-07T13:11:40;5.95;;;3.35;;
49123;SDS011;48506;48.202;16.274;2023-09-07T13:14:06;3.05;;;2.75;;
49123;SDS011;48506;48.202;16.274;2023-09-07T13:16:33;7.20;;;3.60;;
49123;SDS011;48506;48.202;16.274;2023-09-07T13:19:02;7.55;;;3.50;;
49123;SDS011;48506;48.202;16.274;2023-09-07T13:21:28;6.22;;;3.75;;
49123;SDS011;48506;48.202;16.274;2023-09-07T13:23:54;4.57;;;3.47;;
49123;SDS011;48506;48.202;16.274;2023-09-07T13:26:20;5.82;;;3.30;;
49123;SDS011;48506;48.202;16.274;2023-09-07T13:28:46;4.32;;;2.58;;
49123;SDS011;48506;48.202;16.274;2023-09-07T13:31:12;7.45;;;3.55;;
49123;SDS011;48506;48.202;16.274;2023-09-07T13:33:38;4.93;;;3.50;;
49123;SDS011;48506;48.202;16.274;2023-09-07T13:36:04;6.55;;;3.92;;
49123;SDS011;48506;48.202;16.274;2023-09-07T13:38:30;4.50;;;3.22;;
49123;SDS011;48506;48.202;16.274;2023-09-07T13:40:56;6.15;;;3.33;;
49123;SDS011;48506;48.202;16.274;2023-09-07T13:43:21;6.60;;;4.00;;
49123;SDS011;48506;48.202;16.274;2023-09-07T13:45:47;4.47;;;3.88;;
49123;SDS011;48506;48.202;16.274;2023-09-07T13:48:13;3.97;;;3.45;;
49123;SDS011;48506;48.202;16.274;2023-09-07T13:50:39;5.57;;;3.55;;
49123;SDS011;48506;48.202;16.274;2023-09-07T13:53:05;7.13;;;3.60;;
49123;SDS011;48506;48.202;16.274;2023-09-07T13:55:30;5.13;;;3.40;;
49123;SDS011;48506;48.202;16.274;2023-09-07T13:57:56;3.92;;;3.13;;
49123;SDS011;48506;48.202;16.274;2023-09-07T14:00:22;9.95;;;4.63;;
49123;SDS011;48506;48.202;16.274;2023-09-07T14:02:48;7.00;;;3.53;;
49123;SDS011;48506;48.202;16.274;2023-09-07T14:05:14;5.40;;;3.28;;
49123;SDS011;48506;48.202;16.274;2023-09-07T14:07:40;8.45;;;3.65;;
49123;SDS011;48506;48.202;16.274;2023-09-07T14:10:06;6.05;;;3.88;;
49123;SDS011;48506;48.202;16.274;2023-09-07T14:12:32;5.13;;;3.60;;
49123;SDS011;48506;48.202;16.274;2023-09-07T14:14:58;7.78;;;4.00;;
49123;SDS011;48506;48.202;16.274;2023-09-07T14:17:24;5.07;;;3.95;;
49123;SDS011;48506;48.202;16.274;2023-09-07T14:19:50;5.80;;;3.65;;
49123;SDS011;48506;48.202;16.274;2023-09-07T14:22:16;6.75;;;3.58;;
49123;SDS011;48506;48.202;16.274;2023-09-07T14:24:45;9.07;;;3.95;;
49123;SDS011;48506;48.202;16.274;2023-09-07T14:27:11;5.75;;;4.20;;
49123;SDS011;48506;48.202;16.274;2023-09-07T14:29:37;4.38;;;3.65;;